• Join FlightAware (Why Join?)
  • Login
  • US Flag 
09:17AM EDT


 

Airport Tracker/Info


-or-


 

Live Flight TrackerFlight Track Log ✈ AAL963 ✈ 12-Jul-2013 ✈ KDFW - SBGR / GRU

Flight Track Log - Related Links

Times and Time Zones

All times are in EDT time to prevent confusion due to time zone crossing. See the AAL963 flight status page for this flight to view local times or setup timezone preferences in your user account.

Time Position Orientation Groundspeed Altitude Reporting Facility
EDT Latitude Longitude Course Direction KTS MPH feet Rate Location/Type
09:12PM 32.8490 -97.0560 192° South 193 222 2,100  Level FlightAware
09:13PM 32.8140 -97.0670 195° South 242 278 2,400 780 Climbing FlightAware
09:14PM 32.7760 -97.0780 194° South 265 305 3,000 1,560 Climbing FlightAware
09:14PM 32.7420 -97.0840 188° South 267 307 4,000 1,980 Climbing FlightAware
09:14PM 32.7080 -97.0750 167° South 266 306 4,900 2,040 Climbing FlightAware
09:15PM 32.6910 -97.0640 151° Southeast 269 310 5,500 2,040 Climbing FlightAware
09:15PM 32.6590 -97.0440 152° Southeast 274 315 6,400 1,980 Climbing FlightAware
09:16PM 32.6260 -97.0230 152° Southeast 279 321 7,400 1,980 Climbing FlightAware
09:16PM 32.5930 -97.0030 153° Southeast 284 327 8,300 1,920 Climbing FlightAware
09:17PM 32.5660 -96.9860 152° Southeast 287 330 9,100 1,860 Climbing FlightAware
09:17PM 32.5390 -96.9700 153° Southeast 293 337 9,800 1,320 Climbing FlightAware
09:18PM 32.4880 -96.9390 153° Southeast 323 372 10,500 1,020 Climbing FlightAware
09:18PM 32.4240 -96.8990 152° Southeast 359 413 11,300 1,080 Climbing FlightAware
09:19PM 32.3690 -96.8660 153° Southeast 383 441 12,000 1,380 Climbing FlightAware
09:20PM 32.3040 -96.8280 154° Southeast 398 458 13,100 1,680 Climbing FlightAware
09:20PM 32.2330 -96.7950 159° South 410 472 14,300 1,680 Climbing FlightAware
09:21PM 32.1640 -96.7700 163° South 420 483 15,300 1,560 Climbing FlightAware
09:21PM 32.1010 -96.7457 162° South 428 493 16,200 1,620 Climbing FlightAware ADS-B
09:22PM 31.9990 -96.7069 162° South 433 498 17,700 1,620 Climbing FlightAware ADS-B
09:23PM 31.9406 -96.6847 162° South 441 507 18,500 1,620 Climbing FlightAware ADS-B
09:23PM 31.8783 -96.6611 162° South 448 516 19,400 1,560 Climbing FlightAware ADS-B
09:24PM 31.8142 -96.6350 161° South 452 520 20,200 1,380 Climbing FlightAware ADS-B
09:24PM 31.7514 -96.6089 161° South 461 531 20,900 1,380 Climbing FlightAware ADS-B
09:26PM 31.6257 -96.5574 161° South 468 539 22,400 1,320 Climbing FlightAware ADS-B
09:26PM 31.5603 -96.5307 161° South 473 544 23,000 1,200 Climbing FlightAware ADS-B
09:27PM 31.4318 -96.4809 162° South 479 551 24,300 1,260 Climbing FlightAware ADS-B
09:28PM 31.3599 -96.4515 158° South 477 549 25,000 1,080 Climbing FlightAware ADS-B
09:28PM 31.2895 -96.3917 136° Southeast 468 539 25,700 1,140 Climbing FlightAware ADS-B
09:28PM 31.2742 -96.3706 130° Southeast 465 535 26,000 1,140 Climbing FlightAware ADS-B
09:29PM 31.2430 -96.3210 125° Southeast 465 535 26,400 780 Climbing FlightAware ADS-B
09:31PM 31.0414 -95.9970 128° Southeast 494 568 28,500 720 Climbing FlightAware ADS-B
09:32PM 30.9552 -95.8697 128° Southeast 504 580 29,100 540 Climbing FlightAware ADS-B
09:33PM 30.9112 -95.8048 128° Southeast 509 586 29,400 600 Climbing FlightAware ADS-B
09:34PM 30.8224 -95.6743 128° Southeast 516 594 30,100 960 Climbing FlightAware ADS-B
09:36PM 30.6744 -95.4572 128° Southeast 507 583 32,100 1,020 Climbing FlightAware ADS-B
09:37PM 30.5852 -95.3269 128° Southeast 503 579 33,000 540 Climbing FlightAware ADS-B
09:37PM 30.5418 -95.2636 129° Southeast 500 575 33,000  Level FlightAware ADS-B
09:38PM 30.4966 -95.1979 129° Southeast 500 575 33,000  Level FlightAware ADS-B
09:39PM 30.4091 -95.0708 129° Southeast 498 573 33,000  Level FlightAware ADS-B
09:39PM 30.3653 -95.0075 129° Southeast 499 574 33,000  Level FlightAware ADS-B
09:40PM 30.3218 -94.9446 129° Southeast 500 575 33,000  Level FlightAware ADS-B
09:40PM 30.2782 -94.8817 129° Southeast 502 578 33,000  Level FlightAware ADS-B
09:41PM 30.1897 -94.7543 129° Southeast 504 580 33,000  Level FlightAware ADS-B
09:42PM 30.1451 -94.6902 129° Southeast 505 581 33,000  Level FlightAware ADS-B
09:42PM 30.1002 -94.6259 129° Southeast 504 580 33,000  Level FlightAware ADS-B
09:45PM 29.8791 -94.3104 129° Southeast 504 580 33,000  Level FlightAware ADS-B
09:45PM 29.8333 -94.2453 129° Southeast 506 582 33,000  Level FlightAware ADS-B
09:46PM 29.7877 -94.1807 129° Southeast 507 583 33,000  Level FlightAware ADS-B
09:47PM 29.6726 -94.0264 133° Southeast 511 588 33,000  Level FlightAware ADS-B
09:48PM 29.6151 -93.9737 141° Southeast 515 593 33,000  Level FlightAware ADS-B
09:48PM 29.5513 -93.9208 144° Southeast 516 594 33,000  Level FlightAware ADS-B
09:49PM 29.4156 -93.8072 144° Southeast 517 595 33,000  Level FlightAware ADS-B
09:50PM 29.3447 -93.7469 143° Southeast 519 597 33,000  Level FlightAware ADS-B
09:50PM 29.2865 -93.6972 143° Southeast 520 598 33,000  Level FlightAware ADS-B
09:51PM 29.2278 -93.6471 143° Southeast 520 598 33,000  Level FlightAware ADS-B
09:51PM 29.1691 -93.5972 143° Southeast 520 598 33,000  Level FlightAware ADS-B
09:52PM 29.1107 -93.5477 143° Southeast 520 598 33,000  Level FlightAware ADS-B
09:53PM 29.0467 -93.4935 143° Southeast 521 600 33,000  Level FlightAware ADS-B
09:53PM 28.9884 -93.4443 144° Southeast 520 598 33,000  Level FlightAware ADS-B
09:54PM 28.9295 -93.3947 144° Southeast 520 598 33,000  Level FlightAware ADS-B
09:54PM 28.8586 -93.3350 144° Southeast 521 600 33,000 -120 Level FlightAware ADS-B
09:55PM 28.7958 -93.2819 144° Southeast 519 597 32,900  Descending Houston Center
09:56PM 28.6789 -93.1833 143° Southeast 520 598 33,000  Climbing Houston Center
09:57PM 28.5397 -93.0664 144° Southeast 519 597 32,900 -60 Descending Houston Center
09:58PM 28.4233 -92.9678 143° Southeast 521 600 32,900  Level Houston Center
09:59PM 28.3061 -92.8736 145° Southeast 520 598 32,900  Level Houston Center
10:00PM 28.1886 -92.7744 143° Southeast 524 603 32,900  Level Houston Center
10:01PM 28.0711 -92.6764 144° Southeast 526 605 32,900  Level Houston Center
10:02PM 27.9531 -92.5800 144° Southeast 524 603 33,000  Climbing Houston Center
10:03PM 27.8361 -92.4850 144° Southeast 520 598 33,000 -60 Level Houston Center
10:04PM 27.7189 -92.3903 144° Southeast 520 598 32,900 -60 Descending Houston Center
10:05PM 27.6011 -92.2956 145° Southeast 517 595 32,900  Level Houston Center
10:06PM 27.4850 -92.1986 143° Southeast 519 597 32,900  Level Houston Center
10:07PM 27.3664 -92.1044 145° Southeast 520 598 33,000  Climbing Houston Center
10:08PM 27.2258 -91.9933 145° Southeast 518 596 32,900  Descending Houston Center
10:09PM 27.1100 -91.8981 144° Southeast 516 594 33,000  Climbing Houston Center
10:10PM 26.9942 -91.8050 144° Southeast 513 590 32,900  Descending Houston Center
10:12PM 26.8480 -91.6866 144° Southeast  Level FlightAware Approximate
10:19PM 26.0976 -91.0845 145° Southeast  Level FlightAware Approximate
10:20PM 25.9898 -90.9999 145° Southeast  Level FlightAware Approximate
10:21PM 25.8819 -90.9154 145° Southeast  Level FlightAware Approximate
10:22PM 25.7739 -90.8311 145° Southeast  Level FlightAware Approximate
10:23PM 25.6659 -90.7469 145° Southeast  Level FlightAware Approximate
10:24PM 25.5579 -90.6629 145° Southeast  Level FlightAware Approximate
10:25PM 25.4498 -90.5790 145° Southeast  Level FlightAware Approximate
10:26PM 25.3417 -90.4953 145° Southeast  Level FlightAware Approximate
10:27PM 25.2335 -90.4118 145° Southeast  Level FlightAware Approximate
10:28PM 25.1252 -90.3283 145° Southeast  Level FlightAware Approximate
10:29PM 25.0170 -90.2451 145° Southeast  Level FlightAware Approximate
10:30PM 24.9086 -90.1619 145° Southeast  Level FlightAware Approximate
10:31PM 24.8003 -90.0790 145° Southeast  Level FlightAware Approximate
10:32PM 24.6918 -89.9961 145° Southeast  Level FlightAware Approximate
10:33PM 24.5834 -89.9134 145° Southeast  Level FlightAware Approximate
10:34PM 24.4772 -89.8284 144° Southeast  Level FlightAware Approximate
10:35PM 24.3710 -89.7434 144° Southeast  Level FlightAware Approximate
10:36PM 24.2635 -89.6603 146° Southeast  Level FlightAware Approximate
10:37PM 24.1547 -89.5792 146° Southeast  Level FlightAware Approximate
10:38PM 24.0460 -89.4983 146° Southeast  Level FlightAware Approximate
10:39PM 23.9371 -89.4174 146° Southeast  Level FlightAware Approximate
10:39PM 23.7160 -89.2600 146° Southeast 494 568 33,000  Level FlightAware
10:40PM 23.6520 -89.2120 146° Southeast 494 568 33,000  Level FlightAware
10:40PM 23.5710 -89.1510 145° Southeast 493 567 33,000  Level FlightAware
10:41PM 23.4950 -89.0930 145° Southeast 493 567 33,000  Level FlightAware
10:42PM 23.4380 -89.0490 145° Southeast 493 567 33,000  Level FlightAware
10:42PM 23.3220 -88.9650 146° Southeast 492 566 33,000  Level FlightAware
10:43PM 23.2630 -88.9210 146° Southeast 492 566 33,000  Level FlightAware
10:44PM 23.1710 -88.8530 146° Southeast 492 566 33,000  Level FlightAware
10:44PM 23.0910 -88.7930 145° Southeast 493 567 33,000  Level FlightAware
10:45PM 23.0190 -88.7390 145° Southeast 493 567 33,000  Level FlightAware
10:46PM 22.9290 -88.6740 146° Southeast 495 570 33,000  Level FlightAware
10:46PM 22.8630 -88.6250 146° Southeast 497 572 33,000  Level FlightAware
10:47PM 22.7770 -88.5620 146° Southeast 499 574 33,000  Level FlightAware
10:48PM 22.7010 -88.5050 145° Southeast 499 574 33,000  Level FlightAware
10:49PM 22.6260 -88.4500 146° Southeast 499 574 33,000  Level FlightAware
10:49PM 22.5600 -88.3910 140° Southeast 499 574 33,000  Level FlightAware
10:50PM 22.4890 -88.3190 137° Southeast 497 572 33,000  Level FlightAware
10:50PM 22.4410 -88.2700 137° Southeast 498 573 33,000  Level FlightAware
10:51PM 22.3770 -88.2040 136° Southeast 498 573 33,000  Level FlightAware
10:52PM 22.2870 -88.1130 137° Southeast 498 573 33,000  Level FlightAware
10:53PM 22.2290 -88.0530 136° Southeast 498 573 33,000  Level FlightAware
10:53PM 22.1500 -87.9750 138° Southeast 498 573 33,000  Level FlightAware
10:54PM 22.0680 -87.8920 137° Southeast 499 574 33,000  Level FlightAware
10:55PM 21.9900 -87.8140 137° Southeast 501 577 33,000  Level FlightAware
10:56PM 21.9210 -87.7450 137° Southeast 503 579 33,000  Level FlightAware
10:56PM 21.8540 -87.6770 137° Southeast 505 581 33,000  Level FlightAware
10:57PM 21.7770 -87.6010 137° Southeast 505 581 33,000  Level FlightAware
10:58PM 21.7110 -87.5350 137° Southeast 505 581 33,000  Level FlightAware
10:58PM 21.6390 -87.4640 137° Southeast 505 581 33,000  Level FlightAware
10:59PM 21.5810 -87.4060 137° Southeast 505 581 33,000  Level FlightAware
11:00PM 21.4930 -87.3200 138° Southeast 506 582 33,000  Level FlightAware
11:00PM 21.4290 -87.2560 137° Southeast 508 585 33,000  Level FlightAware
11:01PM 21.3680 -87.1960 138° Southeast 508 585 33,000  Level FlightAware
11:02PM 21.2910 -87.1200 137° Southeast 508 585 33,000  Level FlightAware
11:02PM 21.2110 -87.0420 138° Southeast 508 585 33,000  Level FlightAware
11:03PM 21.1630 -86.9950 138° Southeast 508 585 33,000  Level FlightAware
11:04PM 21.0840 -86.9170 137° Southeast 508 585 33,000  Level FlightAware
11:04PM 21.0140 -86.8480 137° Southeast 506 582 33,000  Level FlightAware
11:05PM 20.9270 -86.7640 138° Southeast 502 578 33,000  Level FlightAware
11:06PM 20.8590 -86.6970 137° Southeast 501 577 33,000  Level FlightAware
11:06PM 20.7840 -86.6240 138° Southeast 501 577 33,000  Level FlightAware
11:07PM 20.7070 -86.5510 138° Southeast 497 572 33,000  Level FlightAware
11:08PM 20.6440 -86.4890 137° Southeast 493 567 33,000  Level FlightAware
11:09PM 20.5710 -86.4190 138° Southeast 494 568 33,000  Level FlightAware
11:10PM 20.4790 -86.3280 137° Southeast 494 568 33,000  Level FlightAware
11:10PM 20.4260 -86.2760 137° Southeast 494 568 33,000  Level FlightAware
11:11PM 20.3460 -86.2010 139° Southeast 497 572 33,000  Level FlightAware
11:12PM 20.2500 -86.1090 138° Southeast 497 572 33,000  Level FlightAware
11:12PM 20.1770 -86.0390 138° Southeast 499 574 33,000  Level FlightAware
11:13PM 20.1020 -85.9670 138° Southeast 499 574 33,000  Level FlightAware
11:14PM 20.0450 -85.9140 139° Southeast 499 574 33,000  Level FlightAware
11:14PM 19.9690 -85.8420 138° Southeast 499 574 33,000  Level FlightAware
11:15PM 19.8950 -85.7850 144° Southeast 497 572 33,000  Level FlightAware
11:16PM 19.8110 -85.7150 142° Southeast 496 571 33,000  Level FlightAware
11:16PM 19.7410 -85.6580 143° Southeast 495 570 33,000 660 Level FlightAware
11:17PM 19.6560 -85.5970 146° Southeast 489 563 34,000 1,020 Climbing FlightAware
11:18PM 19.5740 -85.5560 155° Southeast 491 565 34,500 720 Climbing FlightAware
11:19PM 19.4940 -85.5100 152° Southeast 490 564 35,000 360 Climbing FlightAware
11:19PM 19.4240 -85.4670 150° Southeast 488 562 35,000  Level FlightAware
11:20PM 19.3390 -85.4090 147° Southeast 490 564 35,000  Level FlightAware
11:20PM 19.2750 -85.3560 142° Southeast 492 566 35,000  Level FlightAware
11:21PM 19.2240 -85.3090 139° Southeast 492 566 35,000  Level FlightAware
11:22PM 19.1300 -85.2000 132° Southeast 496 571 35,000  Level FlightAware
11:23PM 19.0830 -85.1450 132° Southeast 496 571 35,000  Level FlightAware
11:23PM 19.0210 -85.0710 132° Southeast 496 571 35,000  Level FlightAware
11:24PM 18.9420 -84.9790 132° Southeast 496 571 35,000  Level FlightAware
11:25PM 18.8950 -84.9240 132° Southeast 496 571 35,000  Level FlightAware
11:26PM 18.8470 -84.8670 132° Southeast 496 571 35,000  Level FlightAware
11:26PM 18.8000 -84.8120 132° Southeast 496 571 35,000  Level FlightAware
11:27PM 18.7380 -84.7390 132° Southeast 496 571 35,000  Level FlightAware
11:28PM 18.6880 -84.6810 132° Southeast 496 571 35,000  Level FlightAware
11:28PM 18.6410 -84.6260 132° Southeast 496 571 35,000  Level FlightAware
11:29PM 18.5780 -84.5520 132° Southeast 496 571 35,000  Level FlightAware
11:30PM 18.5330 -84.4990 132° Southeast 496 571 35,000  Level FlightAware
11:30PM 18.4700 -84.4250 132° Southeast 496 571 35,000  Level FlightAware
11:31PM 18.4230 -84.3700 132° Southeast 496 571 35,000  Level FlightAware
11:34PM 18.1902 -84.1422 137° Southeast  Level Estimated
11:35PM 18.0937 -84.0481 137° Southeast  Level Estimated
11:36PM 17.9973 -83.9541 137° Southeast  Level Estimated
11:37PM 17.9007 -83.8603 137° Southeast  Level Estimated
11:38PM 17.8042 -83.7665 137° Southeast  Level Estimated
11:39PM 17.7076 -83.6728 137° Southeast  Level Estimated
11:40PM 17.6109 -83.5793 137° Southeast  Level Estimated
11:41PM 17.5142 -83.4858 137° Southeast  Level Estimated
11:42PM 17.4175 -83.3924 137° Southeast  Level Estimated
11:43PM 17.3207 -83.2992 137° Southeast  Level Estimated
11:44PM 17.2239 -83.2060 137° Southeast  Level Estimated
11:45PM 17.1270 -83.1129 137° Southeast  Level Estimated
11:46PM 17.0301 -83.0199 137° Southeast  Level Estimated
11:47PM 16.9331 -82.9271 137° Southeast  Level Estimated
11:48PM 16.8361 -82.8343 138° Southeast  Level Estimated
11:49PM 16.7391 -82.7416 138° Southeast  Level Estimated
11:50PM 16.6420 -82.6490 138° Southeast  Level Estimated
11:51PM 16.5449 -82.5565 138° Southeast  Level Estimated
11:52PM 16.4477 -82.4641 138° Southeast  Level Estimated
11:53PM 16.3505 -82.3717 138° Southeast  Level Estimated
11:54PM 16.2533 -82.2795 138° Southeast  Level Estimated
11:55PM 16.1560 -82.1874 138° Southeast  Level Estimated
11:56PM 16.0587 -82.0954 138° Southeast  Level Estimated
11:57PM 15.9613 -82.0034 138° Southeast  Level Estimated
11:58PM 15.8639 -81.9115 138° Southeast  Level Estimated
11:59PM 15.7665 -81.8198 138° Southeast  Level Estimated
12:00AM 15.6690 -81.7281 138° Southeast  Level Estimated
12:01AM 15.5715 -81.6365 138° Southeast  Level Estimated
12:02AM 15.4740 -81.5450 138° Southeast  Level Estimated
12:03AM 15.3764 -81.4535 138° Southeast  Level Estimated
12:04AM 15.2787 -81.3622 138° Southeast  Level Estimated
12:05AM 15.1811 -81.2709 138° Southeast  Level Estimated
12:06AM 15.0834 -81.1798 138° Southeast  Level Estimated
12:07AM 14.9856 -81.0887 138° Southeast  Level Estimated
12:08AM 14.8879 -80.9977 138° Southeast  Level Estimated
12:09AM 14.7901 -80.9068 138° Southeast  Level Estimated
12:10AM 14.6922 -80.8159 138° Southeast  Level Estimated
12:11AM 14.5943 -80.7252 138° Southeast  Level Estimated
12:12AM 14.4964 -80.6345 138° Southeast  Level Estimated
12:13AM 14.3985 -80.5439 138° Southeast  Level Estimated
12:14AM 14.3005 -80.4533 138° Southeast  Level Estimated
12:15AM 14.2025 -80.3629 138° Southeast  Level Estimated
12:16AM 14.1044 -80.2726 138° Southeast  Level Estimated
12:17AM 14.0063 -80.1823 138° Southeast  Level Estimated
12:18AM 13.9082 -80.0921 138° Southeast  Level Estimated
12:19AM 13.8101 -80.0019 138° Southeast  Level Estimated
12:20AM 13.7119 -79.9119 138° Southeast  Level Estimated
12:21AM 13.6137 -79.8219 138° Southeast  Level Estimated
12:22AM 13.5154 -79.7320 138° Southeast  Level Estimated
12:23AM 13.4171 -79.6422 138° Southeast  Level Estimated
12:24AM 13.3188 -79.5524 138° Southeast  Level Estimated
12:25AM 13.2205 -79.4627 138° Southeast  Level Estimated
12:26AM 13.1221 -79.3731 138° Southeast  Level Estimated
12:27AM 13.0237 -79.2836 138° Southeast  Level Estimated
12:28AM 12.9252 -79.1941 138° Southeast  Level Estimated
12:29AM 12.8268 -79.1047 138° Southeast  Level Estimated
12:30AM 12.7283 -79.0154 138° Southeast  Level Estimated
12:31AM 12.6297 -78.9261 139° Southeast  Level Estimated
12:32AM 12.5312 -78.8369 139° Southeast  Level Estimated
12:33AM 12.4326 -78.7478 139° Southeast  Level Estimated
12:34AM 12.3340 -78.6588 139° Southeast  Level Estimated
12:35AM 12.2353 -78.5698 139° Southeast  Level Estimated
12:36AM 12.1367 -78.4809 139° Southeast  Level Estimated
12:37AM 12.0379 -78.3920 139° Southeast  Level Estimated
12:37AM 11.4760 -77.9030 139° Southeast 490 564 35,000  Level FlightAware
12:38AM 11.9392 -78.3032 139° Southeast  Level Estimated
12:38AM 11.4170 -77.8470 137° Southeast 489 563 35,000  Level FlightAware
12:39AM 11.3470 -77.7810 137° Southeast 488 562 35,000  Level FlightAware
12:39AM 11.2820 -77.7200 137° Southeast 488 562 35,000  Level FlightAware
12:40AM 11.2270 -77.6660 136° Southeast 488 562 35,000  Level FlightAware
12:41AM 11.0820 -77.5320 138° Southeast 35,000  Level FlightAware
12:42AM 11.0090 -77.4640 138° Southeast 490 564 35,000  Level FlightAware
12:43AM 10.9260 -77.3840 137° Southeast 488 562 35,000  Level FlightAware
12:44AM 10.8370 -77.3030 138° Southeast 486 559 35,000  Level FlightAware
12:44AM 10.7790 -77.2490 138° Southeast 486 559 35,000  Level FlightAware
12:45AM 10.7240 -77.1950 136° Southeast 488 562 35,000  Level FlightAware
12:46AM 10.6730 -77.1450 136° Southeast 488 562 35,000  Level FlightAware
12:46AM 10.5700 -77.0540 139° Southeast 488 562 35,000  Level FlightAware
12:47AM 10.4790 -76.9700 138° Southeast 493 567 35,000  Level FlightAware
12:48AM 10.4130 -76.9080 137° Southeast 488 562 35,000  Level FlightAware
12:48AM 10.3460 -76.8460 138° Southeast 487 560 35,000  Level FlightAware
12:49AM 10.2770 -76.7820 138° Southeast 486 559 35,000  Level FlightAware
12:50AM 10.2000 -76.7110 138° Southeast 486 559 35,000  Level FlightAware
12:51AM 10.1410 -76.6550 137° Southeast 486 559 35,000  Level FlightAware
12:51AM 10.0560 -76.5770 138° Southeast 484 557 35,000  Level FlightAware
12:52AM 10.0070 -76.5310 137° Southeast 490 564 35,000  Level FlightAware
12:53AM 9.9330 -76.4630 138° Southeast 490 564 35,000  Level FlightAware
12:53AM 9.8560 -76.3920 138° Southeast 483 556 35,000  Level FlightAware
12:54AM 9.7740 -76.3160 138° Southeast 488 562 35,000  Level FlightAware
12:55AM 9.7140 -76.2610 138° Southeast 488 562 35,000  Level FlightAware
12:55AM 9.6500 -76.2020 138° Southeast 488 562 35,000  Level FlightAware
12:56AM 9.5730 -76.1310 138° Southeast 488 562 35,000  Level FlightAware
12:57AM 9.4980 -76.0610 137° Southeast 488 562 35,000  Level FlightAware
12:58AM 9.4060 -75.9760 138° Southeast 489 563 35,000  Level FlightAware
12:59AM 9.3230 -75.9000 138° Southeast 489 563 35,000  Level FlightAware
12:59AM 9.2520 -75.8350 138° Southeast 488 562 35,000  Level FlightAware
01:00AM 9.1800 -75.7690 138° Southeast 487 560 35,000  Level FlightAware
01:01AM 9.0860 -75.6820 138° Southeast 487 560 35,000  Level FlightAware
01:02AM 9.0310 -75.6300 137° Southeast 487 560 35,000  Level FlightAware
01:03AM 8.9190 -75.5290 138° Southeast 483 556 35,000  Level FlightAware
01:04AM 8.7750 -75.3960 138° Southeast 483 556 35,000  Level FlightAware
01:05AM 8.6760 -75.3060 138° Southeast 483 556 35,000  Level FlightAware
01:06AM 8.6040 -75.2400 138° Southeast 481 554 35,000  Level FlightAware
01:07AM 8.5330 -75.1750 138° Southeast 480 552 35,000  Level FlightAware
01:07AM 8.4670 -75.1150 138° Southeast 479 551 35,000  Level FlightAware
01:08AM 8.4020 -75.0550 138° Southeast 476 548 35,000  Level FlightAware
01:09AM 8.3360 -74.9940 138° Southeast 475 547 35,000  Level FlightAware
01:09AM 8.2710 -74.9350 138° Southeast 474 545 35,000  Level FlightAware
01:10AM 8.2070 -74.8770 138° Southeast 474 545 35,000  Level FlightAware
01:11AM 8.1210 -74.7980 138° Southeast 474 545 35,000  Level FlightAware
01:12AM 8.0520 -74.7350 138° Southeast 474 545 35,000  Level FlightAware
01:12AM 7.9850 -74.6750 138° Southeast 473 544 35,000  Level FlightAware
01:13AM 7.9130 -74.6080 137° Southeast 474 545 35,000  Level FlightAware
01:14AM 7.8470 -74.5490 138° Southeast 475 547 35,000  Level FlightAware
01:14AM 7.7820 -74.4900 138° Southeast 474 545 35,000  Level FlightAware
01:15AM 7.7170 -74.4300 138° Southeast 474 545 35,000  Level FlightAware
01:16AM 7.6540 -74.3730 138° Southeast 474 545 35,000  Level FlightAware
01:16AM 7.5790 -74.3040 138° Southeast 475 547 35,000  Level FlightAware
01:17AM 7.5130 -74.2450 138° Southeast 476 548 35,000  Level FlightAware
01:18AM 7.4390 -74.1770 138° Southeast 478 550 35,000  Level FlightAware
01:18AM 7.3740 -74.1190 138° Southeast 479 551 35,000  Level FlightAware
01:19AM 7.3070 -74.0580 138° Southeast 479 551 35,000  Level FlightAware
01:20AM 7.1970 -73.9580 138° Southeast 478 550 35,000  Level FlightAware
01:21AM 7.1260 -73.8940 138° Southeast 479 551 35,000  Level FlightAware
01:22AM 7.0350 -73.8140 139° Southeast 478 550 35,000  Level FlightAware
01:23AM 6.9510 -73.7630 149° Southeast 476 548 35,000  Level FlightAware
01:23AM 6.8620 -73.7150 152° Southeast 475 547 35,000  Level FlightAware
01:24AM 6.7840 -73.6730 152° Southeast 475 547 35,000  Level FlightAware
01:25AM 6.6960 -73.6280 153° Southeast 476 548 35,000  Level FlightAware
01:25AM 6.6070 -73.5920 158° South 476 548 35,000  Level FlightAware
01:26AM 6.5280 -73.5530 154° Southeast 477 549 35,000  Level FlightAware
01:27AM 6.4420 -73.5070 152° Southeast 477 549 35,000  Level FlightAware
01:28AM 6.3640 -73.4650 152° Southeast 476 548 35,000  Level FlightAware
01:28AM 6.2860 -73.4230 152° Southeast 476 548 35,000  Level FlightAware
01:29AM 6.2000 -73.3760 151° Southeast 475 547 35,000  Level FlightAware
01:30AM 6.1140 -73.3300 152° Southeast 476 548 35,000  Level FlightAware
01:30AM 6.0470 -73.2930 151° Southeast 476 548 35,000  Level FlightAware
01:31AM 5.9880 -73.2600 151° Southeast 476 548 35,000  Level FlightAware
01:32AM 5.9320 -73.2290 151° Southeast 476 548 35,000  Level FlightAware
01:32AM 5.8570 -73.1870 151° Southeast 476 548 35,000  Level FlightAware
01:33AM 5.7960 -73.1530 151° Southeast 476 548 35,000  Level FlightAware
01:34AM 5.6370 -73.0730 153° Southeast 478 550 35,000  Level FlightAware
01:34AM 5.5550 -73.0290 152° Southeast 479 551 35,000  Level FlightAware
01:35AM 5.4810 -72.9890 152° Southeast 480 552 35,000  Level FlightAware
01:36AM 5.4100 -72.9510 152° Southeast 479 551 35,000  Level FlightAware
01:36AM 5.3290 -72.9070 152° Southeast 480 552 35,000  Level FlightAware
01:37AM 5.2450 -72.8620 152° Southeast 481 554 35,000  Level FlightAware
01:38AM 5.1700 -72.8220 152° Southeast 481 554 35,000  Level FlightAware
01:38AM 5.0950 -72.7810 151° Southeast 478 550 35,000  Level FlightAware
01:39AM 5.0290 -72.7450 151° Southeast 478 550 35,000  Level FlightAware
01:40AM 4.9480 -72.7000 151° Southeast 478 550 35,000  Level FlightAware
01:40AM 4.8890 -72.6670 151° Southeast 478 550 35,000  Level FlightAware
01:41AM 4.8100 -72.6230 151° Southeast 478 550 35,000  Level FlightAware
01:42AM 4.7500 -72.5890 151° Southeast 478 550 35,000  Level FlightAware
01:42AM 4.6890 -72.5560 152° Southeast 478 550 35,000  Level FlightAware
01:43AM 4.6290 -72.5230 151° Southeast 478 550 35,000  Level FlightAware
01:44AM 4.5520 -72.4800 151° Southeast 478 550 35,000  Level FlightAware
01:44AM 4.4930 -72.4470 151° Southeast 478 550 35,000  Level FlightAware
01:45AM 4.4340 -72.4140 151° Southeast 478 550 35,000  Level FlightAware
01:46AM 4.3530 -72.3690 151° Southeast 478 550 35,000  Level FlightAware
01:46AM 4.2940 -72.3360 151° Southeast 478 550 35,000  Level FlightAware
01:47AM 4.2350 -72.3030 151° Southeast 478 550 35,000  Level FlightAware
01:48AM 4.1560 -72.2590 151° Southeast 478 550 35,000  Level FlightAware
01:50AM 3.9692 -72.1536 151° Southeast  Level FlightAware Approximate
01:51AM 3.8597 -72.0812 145° Southeast  Level FlightAware Approximate
01:52AM 3.7524 -72.0053 145° Southeast  Level FlightAware Approximate
01:53AM 3.6452 -71.9294 145° Southeast  Level FlightAware Approximate
01:54AM 3.5380 -71.8536 145° Southeast  Level FlightAware Approximate
01:55AM 3.4307 -71.7777 145° Southeast  Level FlightAware Approximate
01:56AM 3.3235 -71.7019 145° Southeast  Level FlightAware Approximate
01:57AM 3.2162 -71.6262 145° Southeast  Level FlightAware Approximate
01:58AM 3.1088 -71.5506 145° Southeast  Level FlightAware Approximate
01:59AM 3.0014 -71.4751 145° Southeast  Level FlightAware Approximate
02:00AM 2.8940 -71.3995 145° Southeast  Level FlightAware Approximate
02:01AM 2.7866 -71.3240 145° Southeast  Level FlightAware Approximate
02:02AM 2.6791 -71.2484 145° Southeast  Level FlightAware Approximate
02:03AM 2.5717 -71.1729 145° Southeast  Level FlightAware Approximate
02:04AM 2.4643 -71.0974 145° Southeast  Level FlightAware Approximate
02:05AM 2.3568 -71.0219 145° Southeast  Level FlightAware Approximate
02:06AM 2.2494 -70.9465 145° Southeast  Level FlightAware Approximate
02:07AM 2.1419 -70.8710 145° Southeast  Level FlightAware Approximate
02:08AM 2.0345 -70.7956 145° Southeast  Level FlightAware Approximate
02:09AM 1.9270 -70.7201 145° Southeast  Level FlightAware Approximate
02:10AM 1.8196 -70.6447 145° Southeast  Level FlightAware Approximate
02:11AM 1.7121 -70.5693 145° Southeast  Level FlightAware Approximate
02:12AM 1.6047 -70.4939 145° Southeast  Level FlightAware Approximate
02:13AM 1.4972 -70.4185 145° Southeast  Level FlightAware Approximate
02:14AM 1.3898 -70.3431 145° Southeast  Level FlightAware Approximate
02:15AM 1.2823 -70.2677 145° Southeast  Level FlightAware Approximate
02:16AM 1.1799 -70.1858 138° Southeast  Level FlightAware Approximate
02:17AM 1.0819 -70.0985 138° Southeast  Level FlightAware Approximate
02:18AM 0.9839 -70.0112 138° Southeast  Level FlightAware Approximate
02:19AM 0.8858 -69.9239 138° Southeast  Level FlightAware Approximate
02:20AM 0.7878 -69.8366 138° Southeast  Level FlightAware Approximate
02:21AM 0.6897 -69.7494 138° Southeast  Level FlightAware Approximate
02:22AM 0.5917 -69.6621 138° Southeast  Level FlightAware Approximate
02:23AM 0.4936 -69.5748 138° Southeast  Level FlightAware Approximate
02:24AM 0.3955 -69.4875 138° Southeast  Level FlightAware Approximate
02:25AM 0.2975 -69.4003 138° Southeast  Level FlightAware Approximate
02:26AM 0.1994 -69.3130 138° Southeast  Level FlightAware Approximate
02:27AM 0.1014 -69.2257 138° Southeast  Level FlightAware Approximate
02:28AM 0.0033 -69.1385 138° Southeast  Level FlightAware Approximate
02:29AM -0.0948 -69.0512 138° Southeast  Level FlightAware Approximate
02:30AM -0.1928 -68.9640 138° Southeast  Level FlightAware Approximate
02:31AM -0.2909 -68.8767 138° Southeast  Level FlightAware Approximate
02:32AM -0.3889 -68.7894 138° Southeast  Level FlightAware Approximate
02:33AM -0.4870 -68.7021 138° Southeast  Level FlightAware Approximate
02:34AM -0.5850 -68.6149 138° Southeast  Level FlightAware Approximate
02:35AM -0.6831 -68.5276 138° Southeast  Level FlightAware Approximate
02:36AM -0.7811 -68.4403 138° Southeast  Level FlightAware Approximate
02:37AM -0.8792 -68.3531 138° Southeast  Level FlightAware Approximate
02:38AM -0.9772 -68.2658 138° Southeast  Level FlightAware Approximate
02:39AM -1.0753 -68.1785 138° Southeast  Level FlightAware Approximate
02:40AM -1.1733 -68.0912 138° Southeast  Level FlightAware Approximate
02:41AM -1.2714 -68.0039 138° Southeast  Level FlightAware Approximate
02:42AM -1.3694 -67.9166 138° Southeast  Level FlightAware Approximate
02:43AM -1.4675 -67.8292 138° Southeast  Level FlightAware Approximate
02:44AM -1.5655 -67.7419 138° Southeast  Level FlightAware Approximate
02:45AM -1.6635 -67.6546 138° Southeast  Level FlightAware Approximate
02:46AM -1.7615 -67.5673 138° Southeast  Level FlightAware Approximate
02:47AM -1.8595 -67.4799 138° Southeast  Level FlightAware Approximate
02:48AM -1.9576 -67.3925 138° Southeast  Level FlightAware Approximate
02:49AM -2.0556 -67.3052 138° Southeast  Level FlightAware Approximate
02:50AM -2.1536 -67.2178 138° Southeast  Level FlightAware Approximate
02:51AM -2.2516 -67.1304 138° Southeast  Level FlightAware Approximate
02:52AM -2.3496 -67.0430 138° Southeast  Level FlightAware Approximate
02:53AM -2.4476 -66.9556 138° Southeast  Level FlightAware Approximate
02:54AM -2.5456 -66.8681 138° Southeast  Level FlightAware Approximate
02:55AM -2.6435 -66.7807 138° Southeast  Level FlightAware Approximate
02:56AM -2.7415 -66.6933 138° Southeast  Level FlightAware Approximate
02:57AM -2.8395 -66.6058 138° Southeast  Level FlightAware Approximate
02:58AM -2.9374 -66.5183 138° Southeast  Level FlightAware Approximate
02:59AM -3.0354 -66.4308 138° Southeast  Level FlightAware Approximate
03:00AM -3.1333 -66.3433 138° Southeast  Level FlightAware Approximate
03:01AM -3.2313 -66.2557 138° Southeast  Level FlightAware Approximate
03:02AM -3.3292 -66.1682 138° Southeast  Level FlightAware Approximate
03:03AM -3.4271 -66.0806 138° Southeast  Level FlightAware Approximate
03:04AM -3.5250 -65.9930 138° Southeast  Level FlightAware Approximate
03:05AM -3.6230 -65.9054 138° Southeast  Level FlightAware Approximate
03:06AM -3.7208 -65.8178 138° Southeast  Level FlightAware Approximate
03:07AM -3.8187 -65.7302 138° Southeast  Level FlightAware Approximate
03:08AM -3.9166 -65.6425 138° Southeast  Level FlightAware Approximate
03:09AM -4.0145 -65.5548 138° Southeast  Level FlightAware Approximate
03:10AM -4.1123 -65.4671 138° Southeast  Level FlightAware Approximate
03:11AM -4.2102 -65.3794 138° Southeast  Level FlightAware Approximate
03:12AM -4.3080 -65.2916 138° Southeast  Level FlightAware Approximate
03:13AM -4.4059 -65.2039 138° Southeast  Level FlightAware Approximate
03:14AM -4.5037 -65.1161 138° Southeast  Level FlightAware Approximate
03:15AM -4.6015 -65.0283 138° Southeast  Level FlightAware Approximate
03:16AM -4.6993 -64.9404 138° Southeast  Level FlightAware Approximate
03:17AM -4.7971 -64.8526 138° Southeast  Level FlightAware Approximate
03:18AM -4.8949 -64.7647 138° Southeast  Level FlightAware Approximate
03:19AM -4.9926 -64.6768 138° Southeast  Level FlightAware Approximate
03:20AM -5.0904 -64.5888 138° Southeast  Level FlightAware Approximate
03:21AM -5.1881 -64.5008 138° Southeast  Level FlightAware Approximate
03:22AM -5.2859 -64.4128 138° Southeast  Level FlightAware Approximate
03:23AM -5.3836 -64.3248 138° Southeast  Level FlightAware Approximate
03:24AM -5.4813 -64.2368 138° Southeast  Level FlightAware Approximate
03:25AM -5.5790 -64.1487 138° Southeast  Level FlightAware Approximate
03:26AM -5.6767 -64.0606 138° Southeast  Level FlightAware Approximate
03:27AM -5.7743 -63.9724 138° Southeast  Level FlightAware Approximate
03:28AM -5.8720 -63.8843 138° Southeast  Level FlightAware Approximate
03:29AM -5.9696 -63.7961 138° Southeast  Level FlightAware Approximate
03:30AM -6.0673 -63.7078 138° Southeast  Level FlightAware Approximate
03:31AM -6.1649 -63.6196 138° Southeast  Level FlightAware Approximate
03:32AM -6.2625 -63.5313 138° Southeast  Level FlightAware Approximate
03:33AM -6.3601 -63.4429 138° Southeast  Level FlightAware Approximate
03:34AM -6.4576 -63.3546 138° Southeast  Level FlightAware Approximate
03:35AM -6.5552 -63.2662 138° Southeast  Level FlightAware Approximate
03:36AM -6.6527 -63.1777 138° Southeast  Level FlightAware Approximate
03:37AM -6.7502 -63.0893 138° Southeast  Level FlightAware Approximate
03:38AM -6.8477 -63.0008 138° Southeast  Level FlightAware Approximate
03:39AM -6.9452 -62.9122 138° Southeast  Level FlightAware Approximate
03:40AM -7.0427 -62.8237 138° Southeast  Level FlightAware Approximate
03:41AM -7.1402 -62.7351 138° Southeast  Level FlightAware Approximate
03:42AM -7.2376 -62.6464 138° Southeast  Level FlightAware Approximate
03:43AM -7.3350 -62.5577 138° Southeast  Level FlightAware Approximate
03:44AM -7.4324 -62.4690 138° Southeast  Level FlightAware Approximate
03:45AM -7.5298 -62.3802 138° Southeast  Level FlightAware Approximate
03:46AM -7.6272 -62.2914 138° Southeast  Level FlightAware Approximate
03:47AM -7.7245 -62.2025 138° Southeast  Level FlightAware Approximate
03:48AM -7.8218 -62.1137 138° Southeast  Level FlightAware Approximate
03:49AM -7.9192 -62.0247 138° Southeast  Level FlightAware Approximate
03:50AM -8.0164 -61.9358 138° Southeast  Level FlightAware Approximate
03:51AM -8.1137 -61.8467 138° Southeast  Level FlightAware Approximate
03:52AM -8.2110 -61.7577 138° Southeast  Level FlightAware Approximate
03:53AM -8.3082 -61.6686 138° Southeast  Level FlightAware Approximate
03:54AM -8.4058 -61.5791 138° Southeast  Level FlightAware Approximate
03:55AM -8.5033 -61.4896 138° Southeast  Level FlightAware Approximate
03:56AM -8.6009 -61.4001 138° Southeast  Level FlightAware Approximate
03:57AM -8.6983 -61.3105 138° Southeast  Level FlightAware Approximate
03:58AM -8.7958 -61.2208 138° Southeast  Level FlightAware Approximate
03:59AM -8.8933 -61.1311 138° Southeast  Level FlightAware Approximate
04:00AM -8.9907 -61.0414 138° Southeast  Level FlightAware Approximate
04:01AM -9.0881 -60.9516 138° Southeast  Level FlightAware Approximate
04:02AM -9.1855 -60.8618 138° Southeast  Level FlightAware Approximate
04:03AM -9.2829 -60.7719 138° Southeast  Level FlightAware Approximate
04:04AM -9.3802 -60.6819 138° Southeast  Level FlightAware Approximate
04:05AM -9.4776 -60.5919 138° Southeast  Level FlightAware Approximate
04:06AM -9.5749 -60.5019 138° Southeast  Level FlightAware Approximate
04:07AM -9.6721 -60.4118 138° Southeast  Level FlightAware Approximate
04:08AM -9.7694 -60.3217 138° Southeast  Level FlightAware Approximate
04:09AM -9.8666 -60.2315 138° Southeast  Level FlightAware Approximate
04:10AM -9.9638 -60.1412 138° Southeast  Level FlightAware Approximate
04:11AM -10.0610 -60.0509 138° Southeast  Level FlightAware Approximate
04:12AM -10.1582 -59.9606 138° Southeast  Level FlightAware Approximate
04:13AM -10.2553 -59.8702 138° Southeast  Level FlightAware Approximate
04:14AM -10.3524 -59.7797 138° Southeast  Level FlightAware Approximate
04:15AM -10.4495 -59.6892 137° Southeast  Level FlightAware Approximate
04:16AM -10.5466 -59.5986 137° Southeast  Level FlightAware Approximate
04:17AM -10.6436 -59.5079 137° Southeast  Level FlightAware Approximate
04:18AM -10.7406 -59.4173 137° Southeast  Level FlightAware Approximate
04:19AM -10.8376 -59.3265 137° Southeast  Level FlightAware Approximate
04:20AM -10.9345 -59.2357 137° Southeast  Level FlightAware Approximate
04:21AM -11.0315 -59.1448 137° Southeast  Level FlightAware Approximate
04:22AM -11.1284 -59.0539 137° Southeast  Level FlightAware Approximate
04:23AM -11.2252 -58.9629 137° Southeast  Level FlightAware Approximate
04:24AM -11.3221 -58.8718 137° Southeast  Level FlightAware Approximate
04:25AM -11.4189 -58.7807 137° Southeast  Level FlightAware Approximate
04:26AM -11.5157 -58.6896 137° Southeast  Level FlightAware Approximate
04:27AM -11.6124 -58.5983 137° Southeast  Level FlightAware Approximate
04:28AM -11.7092 -58.5070 137° Southeast  Level FlightAware Approximate
04:29AM -11.8059 -58.4156 137° Southeast  Level FlightAware Approximate
04:30AM -11.9025 -58.3242 137° Southeast  Level FlightAware Approximate
04:31AM -11.9992 -58.2327 137° Southeast  Level FlightAware Approximate
04:32AM -12.0958 -58.1412 137° Southeast  Level FlightAware Approximate
04:33AM -12.1924 -58.0495 137° Southeast  Level FlightAware Approximate
04:34AM -12.2889 -57.9578 137° Southeast  Level FlightAware Approximate
04:35AM -12.3854 -57.8661 137° Southeast  Level FlightAware Approximate
04:36AM -12.4819 -57.7743 137° Southeast  Level FlightAware Approximate
04:37AM -12.5784 -57.6824 137° Southeast  Level FlightAware Approximate
04:38AM -12.6748 -57.5904 137° Southeast  Level FlightAware Approximate
04:39AM -12.7712 -57.4983 137° Southeast  Level FlightAware Approximate
04:40AM -12.8676 -57.4062 137° Southeast  Level FlightAware Approximate
04:41AM -12.9639 -57.3140 137° Southeast  Level FlightAware Approximate
04:42AM -13.0602 -57.2218 137° Southeast  Level FlightAware Approximate
04:43AM -13.1565 -57.1295 137° Southeast  Level FlightAware Approximate
04:44AM -13.2527 -57.0371 137° Southeast  Level FlightAware Approximate
04:45AM -13.3489 -56.9446 137° Southeast  Level FlightAware Approximate
04:46AM -13.4451 -56.8521 137° Southeast  Level FlightAware Approximate
04:47AM -13.5412 -56.7595 137° Southeast  Level FlightAware Approximate
04:48AM -13.6373 -56.6668 137° Southeast  Level FlightAware Approximate
04:49AM -13.7334 -56.5740 137° Southeast  Level FlightAware Approximate
04:50AM -13.8294 -56.4812 137° Southeast  Level FlightAware Approximate
04:51AM -13.9254 -56.3883 137° Southeast  Level FlightAware Approximate
04:52AM -14.0214 -56.2953 137° Southeast  Level FlightAware Approximate
04:53AM -14.1173 -56.2022 137° Southeast  Level FlightAware Approximate
04:54AM -14.2132 -56.1091 137° Southeast  Level FlightAware Approximate
04:55AM -14.3091 -56.0158 137° Southeast  Level FlightAware Approximate
04:56AM -14.4049 -55.9225 137° Southeast  Level FlightAware Approximate
04:57AM -14.5007 -55.8291 137° Southeast  Level FlightAware Approximate
04:58AM -14.5964 -55.7356 137° Southeast  Level FlightAware Approximate
04:59AM -14.6921 -55.6421 137° Southeast  Level FlightAware Approximate
05:00AM -14.7878 -55.5485 137° Southeast  Level FlightAware Approximate
05:01AM -14.8834 -55.4548 137° Southeast  Level FlightAware Approximate
05:02AM -14.9790 -55.3610 137° Southeast  Level FlightAware Approximate
05:03AM -15.0746 -55.2671 137° Southeast  Level FlightAware Approximate
05:04AM -15.1701 -55.1731 136° Southeast  Level FlightAware Approximate
05:05AM -15.2656 -55.0790 136° Southeast  Level FlightAware Approximate
05:06AM -15.3610 -54.9849 136° Southeast  Level FlightAware Approximate
05:07AM -15.4564 -54.8907 136° Southeast  Level FlightAware Approximate
05:08AM -15.5518 -54.7964 136° Southeast  Level FlightAware Approximate
05:09AM -15.6471 -54.7020 136° Southeast  Level FlightAware Approximate
05:10AM -15.7424 -54.6075 136° Southeast  Level FlightAware Approximate
05:11AM -15.8376 -54.5129 136° Southeast  Level FlightAware Approximate
05:12AM -15.9328 -54.4183 136° Southeast  Level FlightAware Approximate
05:13AM -16.0280 -54.3235 136° Southeast  Level FlightAware Approximate
05:14AM -16.1231 -54.2287 136° Southeast  Level FlightAware Approximate
05:15AM -16.2181 -54.1337 136° Southeast  Level FlightAware Approximate
05:16AM -16.3132 -54.0387 136° Southeast  Level FlightAware Approximate
05:17AM -16.4082 -53.9436 136° Southeast  Level FlightAware Approximate
05:18AM -16.5031 -53.8484 136° Southeast  Level FlightAware Approximate
05:19AM -16.5980 -53.7531 136° Southeast  Level FlightAware Approximate
05:20AM -16.6929 -53.6577 136° Southeast  Level FlightAware Approximate
05:21AM -16.7877 -53.5622 136° Southeast  Level FlightAware Approximate
05:22AM -16.8825 -53.4666 136° Southeast  Level FlightAware Approximate
05:23AM -16.9772 -53.3709 136° Southeast  Level FlightAware Approximate
05:24AM -17.0719 -53.2751 136° Southeast  Level FlightAware Approximate
05:25AM -17.1665 -53.1792 136° Southeast  Level FlightAware Approximate
05:26AM -17.2611 -53.0832 136° Southeast  Level FlightAware Approximate
05:27AM -17.3556 -52.9872 136° Southeast  Level FlightAware Approximate
05:28AM -17.4501 -52.8910 136° Southeast  Level FlightAware Approximate
05:29AM -17.5446 -52.7947 136° Southeast  Level FlightAware Approximate
05:30AM -17.6390 -52.6983 136° Southeast  Level FlightAware Approximate
05:31AM -17.7334 -52.6018 136° Southeast  Level FlightAware Approximate
05:32AM -17.8277 -52.5053 136° Southeast  Level FlightAware Approximate
05:33AM -17.9219 -52.4086 136° Southeast  Level FlightAware Approximate
05:34AM -18.0161 -52.3118 136° Southeast  Level FlightAware Approximate
05:35AM -18.1103 -52.2149 136° Southeast  Level FlightAware Approximate
05:36AM -18.2044 -52.1179 136° Southeast  Level FlightAware Approximate
05:37AM -18.2985 -52.0208 136° Southeast  Level FlightAware Approximate
05:38AM -18.3925 -51.9236 136° Southeast  Level FlightAware Approximate
05:39AM -18.4865 -51.8263 136° Southeast  Level FlightAware Approximate
05:40AM -18.5804 -51.7289 135° Southeast  Level FlightAware Approximate
05:41AM -18.6743 -51.6314 135° Southeast  Level FlightAware Approximate
05:42AM -18.7681 -51.5338 135° Southeast  Level FlightAware Approximate
05:43AM -18.8619 -51.4360 135° Southeast  Level FlightAware Approximate
05:44AM -18.9556 -51.3382 135° Southeast  Level FlightAware Approximate
05:45AM -19.0493 -51.2402 135° Southeast  Level FlightAware Approximate
05:46AM -19.1429 -51.1421 135° Southeast  Level FlightAware Approximate
05:46AM -18.9820 -50.7150 135° Southeast 480 552 37,000  Level FlightAware
05:46AM -19.0310 -50.6590 133° Southeast 480 552 37,000  Level FlightAware
05:47AM -19.1140 -50.5710 135° Southeast 480 552 37,000  Level FlightAware
05:48AM -19.1770 -50.5020 134° Southeast 481 554 37,000  Level FlightAware
05:48AM -19.2390 -50.4340 134° Southeast 482 555 37,000  Level FlightAware
05:49AM -19.3080 -50.3580 134° Southeast 482 555 37,000  Level FlightAware
05:50AM -19.3720 -50.2880 134° Southeast 482 555 37,000  Level FlightAware
05:50AM -19.4270 -50.2280 134° Southeast 483 556 37,000  Level FlightAware
05:51AM -19.4960 -50.1530 134° Southeast 484 557 37,000  Level FlightAware
05:52AM -19.5590 -50.0830 134° Southeast 485 558 37,000  Level FlightAware
05:52AM -19.6210 -50.0150 134° Southeast 485 558 37,000  Level FlightAware
05:53AM -19.6920 -49.9360 134° Southeast 485 558 37,000  Level FlightAware
05:54AM -19.7550 -49.8670 134° Southeast 486 559 37,000  Level FlightAware
05:55AM -19.8230 -49.7910 134° Southeast 486 559 37,000  Level FlightAware
05:55AM -19.8830 -49.7250 134° Southeast 486 559 37,000  Level FlightAware
05:56AM -19.9510 -49.6490 134° Southeast 487 560 37,000  Level FlightAware
05:57AM -20.0200 -49.5730 134° Southeast 487 560 37,000  Level FlightAware
05:57AM -20.0830 -49.5030 134° Southeast 488 562 37,000  Level FlightAware
05:58AM -20.1470 -49.4310 133° Southeast 488 562 37,000  Level FlightAware
05:59AM -20.2060 -49.3660 134° Southeast 488 562 37,000  Level FlightAware
05:59AM -20.2790 -49.2840 134° Southeast 489 563 37,000  Level FlightAware
06:00AM -20.3440 -49.2120 134° Southeast 489 563 37,000  Level FlightAware
06:01AM -20.4120 -49.1350 133° Southeast 489 563 37,000  Level FlightAware
06:02AM -20.4740 -49.0660 134° Southeast 490 564 37,000  Level FlightAware
06:02AM -20.5450 -48.9900 135° Southeast 489 563 37,000  Level FlightAware
06:03AM -20.6130 -48.9250 138° Southeast 489 563 37,000  Level FlightAware
06:04AM -20.6890 -48.8550 139° Southeast 489 563 37,000  Level FlightAware
06:04AM -20.7570 -48.7930 140° Southeast 490 564 37,000  Level FlightAware
06:05AM -20.8230 -48.7330 140° Southeast 490 564 37,000  Level FlightAware
06:06AM -20.8980 -48.6640 139° Southeast 490 564 37,000  Level FlightAware
06:07AM -20.9800 -48.5890 140° Southeast 490 564 37,000  Level FlightAware
06:07AM -21.0490 -48.5260 140° Southeast 491 565 37,000  Level FlightAware
06:08AM -21.1240 -48.4570 139° Southeast 491 565 37,000  Level FlightAware
06:09AM -21.1940 -48.3920 139° Southeast 492 566 37,000  Level FlightAware
06:09AM -21.2690 -48.3220 139° Southeast 492 566 37,000  Level FlightAware
06:10AM -21.3380 -48.2590 140° Southeast 492 566 37,000  Level FlightAware
06:11AM -21.4080 -48.1940 139° Southeast 494 568 37,000  Level FlightAware
06:11AM -21.4760 -48.1310 139° Southeast 494 568 37,000  Level FlightAware
06:12AM -21.5540 -48.0590 139° Southeast 495 570 37,000  Level FlightAware
06:13AM -21.6120 -48.0050 139° Southeast 495 570 37,000  Level FlightAware
06:13AM -21.6910 -47.9310 139° Southeast 495 570 37,000  Level FlightAware
06:14AM -21.7600 -47.8660 139° Southeast 496 571 37,000 -840 Level FlightAware
06:15AM -21.8330 -47.7980 139° Southeast 492 566 35,900 -1,980 Descending FlightAware
06:15AM -21.9020 -47.7330 139° Southeast 488 562 34,300 -2,820 Descending FlightAware
06:16AM -21.9720 -47.6680 139° Southeast 492 566 32,300 -3,300 Descending FlightAware
06:17AM -22.0490 -47.5960 139° Southeast 502 578 29,700 -2,640 Descending FlightAware
06:18AM -22.1180 -47.5310 139° Southeast 479 551 28,600 -1,440 Descending FlightAware
06:18AM -22.1770 -47.4760 139° Southeast 458 527 27,900 -1,560 Descending FlightAware
06:19AM -22.2380 -47.4190 139° Southeast 448 516 26,700 -1,980 Descending FlightAware
06:19AM -22.2860 -47.3730 138° Southeast 442 509 25,700 -1,860 Descending FlightAware
06:20AM -22.3520 -47.3100 139° Southeast 427 491 24,500 -1,740 Descending FlightAware
06:21AM -22.4200 -47.2460 139° Southeast 415 478 23,100 -1,800 Descending FlightAware
06:21AM -22.4770 -47.1930 139° Southeast 407 468 22,000 -1,800 Descending FlightAware
06:22AM -22.5310 -47.1420 139° Southeast 403 464 20,700 -1,500 Descending FlightAware
06:23AM -22.5990 -47.0890 144° Southeast 404 465 19,900 -1,500 Descending FlightAware
06:24AM -22.6720 -47.0570 158° South 397 457 18,600 -1,860 Descending FlightAware
06:24AM -22.7420 -47.0290 160° South 389 448 17,400 -1,800 Descending FlightAware
06:25AM -22.8170 -46.9970 159° South 381 438 16,100 -1,800 Descending FlightAware
06:26AM -22.8820 -46.9700 159° South 376 433 14,900 -1,440 Descending FlightAware
06:26AM -22.9500 -46.9410 159° South 349 402 14,100 -1,380 Descending FlightAware
06:27AM -22.9970 -46.9210 159° South 327 376 13,200 -1,860 Descending FlightAware
06:28AM -23.0600 -46.8950 159° South 306 352 11,700 -2,040 Descending FlightAware
06:28AM -23.1130 -46.8730 159° South 309 356 10,300 -1,860 Descending FlightAware
06:29AM -23.1510 -46.8560 158° South 313 360 9,600 -1,320 Descending FlightAware
06:29AM -23.1880 -46.8410 160° South 306 352 9,100 -1,260 Descending FlightAware
06:30AM -23.2100 -46.8310 157° South 303 349 8,700 -1,680 Descending FlightAware
06:30AM -23.2460 -46.8160 159° South 296 341 7,900 -1,500 Descending FlightAware
06:30AM -23.2800 -46.8020 159° South 273 314 7,300 -780 Descending FlightAware
06:31AM -23.3110 -46.7890 159° South 245 282 7,200 -360 Descending FlightAware
06:31AM -23.3360 -46.7780 158° South 233 268 7,000 -480 Descending FlightAware
06:32AM -23.3690 -46.7640 159° South 231 266 6,800 -720 Descending FlightAware
06:32AM -23.3920 -46.7440 141° Southeast 234 269 6,300 -1,020 Descending FlightAware
06:33AM -23.4140 -46.7240 140° Southeast 226 260 5,900 -960 Descending FlightAware
06:33AM -23.4330 -46.7060 139° Southeast 221 254 5,500 -900 Descending FlightAware
06:34AM -23.4530 -46.6800 130° Southeast 207 238 5,100 -720 Descending FlightAware
06:34AM -23.4650 -46.6540 117° Southeast 191 220 4,800 -660 Descending FlightAware
06:35AM -23.4740 -46.6300 112° Southeast 176 203 4,500 -480 Descending FlightAware
06:35AM -23.4730 -46.6130 86° East 170 196 4,400 -420 Descending FlightAware
06:35AM -23.4680 -46.5950 73° East 169 194 4,200 -840 Descending FlightAware
06:36AM -23.4610 -46.5700 73° East 154 177 3,700 -840 Descending FlightAware
06:36AM -23.4560 -46.5500 75° East 144 166 3,400 -780 Descending FlightAware
06:37AM -23.4500 -46.5300 72° East 136 157 3,000 -780 Descending FlightAware
06:37AM -23.4460 -46.5130 76° East 140 161 2,700 -540 Descending FlightAware
06:38AM -23.4360 -46.4770 73° East 137 158 2,300 -420 Descending FlightAware